Time;durP1;ratioP1;P1;durP2;ratioP2;P2;SDS_P1;SDS_P2;PMS_P1;PMS_P2;Temp;Humidity;BMP_temperature;BMP_pressure;BME280_temperature;BME280_humidity;BME280_pressure;Samples;Min_cycle;Max_cycle;Signal;HPM_P1;HPM_P2
2023/11/05 00:02:20;;;;;;;6.07;2.77;;;11.70;99.00;;;;;;5056213;28;20474;-60
2023/11/05 00:04:46;;;;;;;5.93;2.37;;;11.70;99.20;;;;;;5056358;28;20522;-61
2023/11/05 00:07:13;;;;;;;7.57;2.63;;;11.60;99.40;;;;;;5056427;28;20445;-60
2023/11/05 00:09:40;;;;;;;12.33;2.33;;;11.60;99.40;;;;;;5056483;28;20449;-60
2023/11/05 00:12:07;;;;;;;7.17;2.40;;;11.50;99.50;;;;;;5055951;28;20494;-60
2023/11/05 00:14:33;;;;;;;8.40;2.90;;;11.50;99.70;;;;;;5055965;28;20810;-61
2023/11/05 00:17:00;;;;;;;9.47;2.00;;;11.50;99.60;;;;;;5056009;28;20943;-61
2023/11/05 00:19:28;;;;;;;8.47;2.50;;;11.60;99.60;;;;;;5056305;28;20449;-61
2023/11/05 00:21:55;;;;;;;6.70;2.00;;;11.50;99.70;;;;;;5055748;28;20564;-61
2023/11/05 00:24:22;;;;;;;4.97;2.20;;;11.40;99.90;;;;;;5055879;28;20512;-61
2023/11/05 00:26:48;;;;;;;6.23;2.10;;;11.50;99.90;;;;;;5056147;28;20464;-61
2023/11/05 00:29:15;;;;;;;5.40;2.07;;;11.50;99.80;;;;;;5056043;28;20854;-61
2023/11/05 00:31:42;;;;;;;3.90;1.83;;;11.50;99.90;;;;;;5055958;28;20804;-61
2023/11/05 00:34:09;;;;;;;3.20;1.80;;;11.50;99.90;;;;;;5056031;28;20438;-61
2023/11/05 00:36:37;;;;;;;5.53;1.40;;;11.60;99.90;;;;;;5055591;28;20978;-61
2023/11/05 00:39:04;;;;;;;5.70;2.50;;;11.60;99.90;;;;;;5056357;28;20449;-61
2023/11/05 00:41:31;;;;;;;9.60;1.90;;;11.60;99.90;;;;;;5055711;28;20474;-60
2023/11/05 00:43:58;;;;;;;3.83;1.90;;;11.60;99.90;;;;;;5055192;28;20893;-59
2023/11/05 00:46:25;;;;;;;8.60;1.90;;;11.60;99.90;;;;;;5055732;28;20441;-58
2023/11/05 00:48:52;;;;;;;5.60;1.40;;;11.60;99.90;;;;;;5055678;28;20442;-58
2023/11/05 00:51:19;;;;;;;5.00;1.80;;;11.60;99.90;;;;;;5055626;28;20503;-58
2023/11/05 00:53:47;;;;;;;5.13;1.87;;;11.60;99.90;;;;;;5055462;28;20462;-59
2023/11/05 00:56:14;;;;;;;5.83;1.57;;;11.60;99.90;;;;;;5055526;28;20441;-59
2023/11/05 00:58:41;;;;;;;6.53;1.70;;;11.60;99.90;;;;;;5055529;28;20446;-58
2023/11/05 01:01:08;;;;;;;6.37;1.57;;;11.50;99.90;;;;;;5054390;28;20454;-58
2023/11/05 01:03:34;;;;;;;6.30;1.67;;;11.40;99.90;;;;;;5054907;28;20493;-59
2023/11/05 01:06:01;;;;;;;5.40;1.77;;;11.40;99.90;;;;;;5055240;28;20449;-59
2023/11/05 01:08:28;;;;;;;3.17;1.50;;;11.50;99.90;;;;;;5055179;28;20460;-59
2023/11/05 01:10:56;;;;;;;3.37;1.37;;;11.50;99.90;;;;;;5054960;28;20465;-60
2023/11/05 01:13:24;;;;;;;5.30;1.73;;;11.50;99.90;;;;;;5055034;28;20869;-60
2023/11/05 01:15:51;;;;;;;4.77;1.37;;;11.60;99.90;;;;;;5055098;28;20450;-59
2023/11/05 01:18:18;;;;;;;4.97;1.77;;;11.60;99.90;;;;;;5054944;28;20446;-59
2023/11/05 01:20:45;;;;;;;4.23;2.00;;;11.60;99.90;;;;;;5054764;28;20449;-59
2023/11/05 01:23:11;;;;;;;6.53;1.47;;;11.70;99.90;;;;;;5054844;28;20510;-59
2023/11/05 01:25:38;;;;;;;3.10;1.30;;;11.70;99.90;;;;;;5054884;28;20444;-59
2023/11/05 01:28:06;;;;;;;6.57;1.40;;;11.70;99.90;;;;;;5054938;28;20445;-59
2023/11/05 01:30:33;;;;;;;8.40;1.50;;;11.70;99.90;;;;;;5054445;28;20979;-59
2023/11/05 01:32:59;;;;;;;5.20;1.33;;;11.70;99.90;;;;;;5054392;28;20975;-60
2023/11/05 01:35:26;;;;;;;6.47;1.43;;;11.70;99.90;;;;;;5054787;28;20468;-59
2023/11/05 01:37:53;;;;;;;5.57;1.40;;;11.70;99.90;;;;;;5054697;28;20467;-59
2023/11/05 01:40:19;;;;;;;5.40;1.30;;;11.80;99.90;;;;;;5054259;28;20958;-60
2023/11/05 01:42:46;;;;;;;6.37;1.33;;;11.80;99.90;;;;;;5054217;28;20998;-60
2023/11/05 01:45:14;;;;;;;7.37;1.10;;;11.80;99.90;;;;;;5054477;28;20673;-60
2023/11/05 01:47:41;;;;;;;7.10;2.13;;;11.80;99.90;;;;;;5054162;28;20962;-60
2023/11/05 01:50:09;;;;;;;8.50;1.40;;;11.80;99.90;;;;;;5054419;28;20445;-60
2023/11/05 01:52:37;;;;;;;3.73;1.20;;;11.80;99.90;;;;;;5054343;28;20493;-59
2023/11/05 01:55:06;;;;;;;7.00;1.70;;;11.80;99.90;;;;;;5054371;28;20453;-59
2023/11/05 01:57:33;;;;;;;5.10;1.53;;;11.60;99.90;;;;;;5054006;28;20948;-60
2023/11/05 02:00:00;;;;;;;3.67;1.37;;;11.60;99.90;;;;;;5054128;28;20449;-60
2023/11/05 02:02:28;;;;;;;3.33;1.27;;;11.60;99.90;;;;;;5053953;28;20986;-60
2023/11/05 02:04:55;;;;;;;5.43;1.63;;;11.60;99.90;;;;;;5054169;28;20505;-60
2023/11/05 02:07:22;;;;;;;2.30;1.50;;;11.60;99.90;;;;;;5054207;28;20449;-60
2023/11/05 02:09:49;;;;;;;4.13;1.53;;;11.60;99.90;;;;;;5053961;28;20442;-60
2023/11/05 02:12:16;;;;;;;6.03;1.43;;;11.60;99.90;;;;;;5053047;28;20840;-60
2023/11/05 02:14:50;;;;;;;7.97;1.40;;;11.60;99.90;;;;;;5054080;28;20441;-60
2023/11/05 02:17:17;;;;;;;2.00;1.17;;;11.50;99.90;;;;;;5054120;28;20425;-60
2023/11/05 02:19:45;;;;;;;3.27;1.10;;;11.40;99.90;;;;;;5053982;28;20452;-60
2023/11/05 02:22:14;;;;;;;4.00;1.13;;;11.40;99.90;;;;;;5053658;28;20472;-60
2023/11/05 02:24:44;;;;;;;4.40;1.20;;;11.50;99.90;;;;;;5053786;28;20485;-60
2023/11/05 02:27:11;;;;;;;3.80;1.53;;;11.50;99.90;;;;;;5053812;28;20794;-60
2023/11/05 02:29:38;;;;;;;3.50;1.40;;;11.40;99.90;;;;;;5053766;28;20449;-60
2023/11/05 02:32:05;;;;;;;3.03;0.70;;;11.40;99.90;;;;;;5053630;28;20474;-61
2023/11/05 02:34:32;;;;;;;4.83;1.60;;;11.40;99.90;;;;;;5053591;28;20457;-60
2023/11/05 02:36:59;;;;;;;2.80;0.70;;;11.40;99.90;;;;;;5054813;28;20446;-60
2023/11/05 02:39:26;;;;;;;4.00;1.20;;;11.40;99.90;;;;;;5053603;28;20437;-61
2023/11/05 02:41:54;;;;;;;7.43;1.43;;;11.40;99.90;;;;;;5053546;28;20493;-61
2023/11/05 02:44:20;;;;;;;1.90;1.00;;;11.40;99.90;;;;;;5053332;28;20999;-60
2023/11/05 02:46:47;;;;;;;1.90;0.83;;;11.50;99.90;;;;;;5053565;28;20449;-60
2023/11/05 02:49:14;;;;;;;5.57;0.93;;;11.50;99.90;;;;;;5053443;28;20449;-60
2023/11/05 02:51:40;;;;;;;3.83;0.90;;;11.50;99.90;;;;;;5054064;28;20443;-61
2023/11/05 02:54:07;;;;;;;3.70;1.20;;;11.50;99.90;;;;;;5054718;28;20495;-61
2023/11/05 02:56:34;;;;;;;3.03;0.90;;;11.40;99.90;;;;;;5054112;28;20446;-61
2023/11/05 02:59:02;;;;;;;2.20;0.70;;;11.40;99.90;;;;;;5054181;28;20445;-61
2023/11/05 03:01:29;;;;;;;1.67;0.63;;;11.50;99.90;;;;;;5053373;28;20449;-61
2023/11/05 03:03:56;;;;;;;3.73;0.80;;;11.50;99.90;;;;;;5053256;28;20540;-60
2023/11/05 03:06:25;;;;;;;2.03;0.50;;;11.50;99.90;;;;;;5053416;28;20939;-60
2023/11/05 03:08:51;;;;;;;1.13;0.80;;;11.40;99.90;;;;;;5052999;28;21045;-61
2023/11/05 03:11:18;;;;;;;2.63;1.00;;;11.50;99.90;;;;;;5053083;28;20453;-61
2023/11/05 03:13:45;;;;;;;1.60;0.90;;;11.50;99.90;;;;;;5053286;28;20466;-61
2023/11/05 03:16:13;;;;;;;0.90;0.60;;;11.50;99.90;;;;;;5053332;28;20445;-61
2023/11/05 03:18:40;;;;;;;7.73;0.70;;;11.60;99.90;;;;;;5052981;28;20450;-61
2023/11/05 03:21:07;;;;;;;1.00;0.80;;;11.60;99.90;;;;;;5053123;28;20470;-61
2023/11/05 03:23:34;;;;;;;0.73;0.67;;;11.60;99.90;;;;;;5054017;28;20548;-61
2023/11/05 03:26:00;;;;;;;1.60;0.73;;;11.70;99.90;;;;;;5056896;28;21019;-60
2023/11/05 03:28:27;;;;;;;1.03;0.70;;;11.60;99.90;;;;;;5056964;28;20936;-60
2023/11/05 03:30:53;;;;;;;1.03;0.60;;;11.70;99.90;;;;;;5057231;28;20872;-60
2023/11/05 03:33:21;;;;;;;2.90;0.90;;;11.60;99.90;;;;;;5057105;28;20489;-60
2023/11/05 03:35:50;;;;;;;2.63;0.83;;;11.60;99.90;;;;;;5056781;28;20581;-60
2023/11/05 03:38:17;;;;;;;4.40;0.80;;;11.60;99.90;;;;;;5056854;28;20480;-60
2023/11/05 03:40:44;;;;;;;1.43;0.77;;;11.70;99.90;;;;;;5056729;28;20957;-61
2023/11/05 03:43:10;;;;;;;2.60;0.80;;;11.70;99.90;;;;;;5056570;28;20838;-61
2023/11/05 03:45:37;;;;;;;2.13;0.90;;;11.70;99.90;;;;;;5056862;28;20477;-61
2023/11/05 03:48:04;;;;;;;1.50;0.80;;;11.70;99.90;;;;;;5056555;28;20471;-61
2023/11/05 03:50:34;;;;;;;2.00;0.70;;;11.70;99.90;;;;;;5056485;28;20951;-61
2023/11/05 03:53:00;;;;;;;1.60;0.90;;;11.80;99.90;;;;;;5056691;28;20466;-61
2023/11/05 03:55:27;;;;;;;1.40;1.27;;;11.80;99.90;;;;;;5056772;28;20457;-61
2023/11/05 03:57:54;;;;;;;0.90;0.60;;;11.80;99.90;;;;;;5056758;28;20441;-61
2023/11/05 04:00:21;;;;;;;0.60;0.40;;;11.80;99.90;;;;;;5056715;28;20437;-61
2023/11/05 04:02:47;;;;;;;1.37;0.60;;;11.80;99.90;;;;;;5056553;28;20480;-61
2023/11/05 04:05:15;;;;;;;1.43;0.60;;;11.70;99.90;;;;;;5056517;28;20484;-58
2023/11/05 04:07:43;;;;;;;2.30;0.90;;;11.70;99.90;;;;;;5056494;28;20565;-58
2023/11/05 04:10:10;;;;;;;0.77;0.50;;;11.70;99.90;;;;;;5056050;28;20959;-59
2023/11/05 04:12:37;;;;;;;2.37;0.70;;;11.70;99.90;;;;;;5056162;28;20889;-58
2023/11/05 04:15:06;;;;;;;2.40;0.60;;;11.70;99.90;;;;;;5056258;28;20438;-60
2023/11/05 04:17:33;;;;;;;0.70;0.70;;;11.70;99.90;;;;;;5056448;28;20503;-61
2023/11/05 04:20:00;;;;;;;3.07;0.67;;;11.70;99.90;;;;;;5056289;28;20480;-61
2023/11/05 04:22:26;;;;;;;1.13;0.43;;;11.70;99.90;;;;;;5056360;28;20468;-61
2023/11/05 04:24:55;;;;;;;1.20;0.70;;;11.70;99.90;;;;;;5056244;28;20481;-61
2023/11/05 04:27:22;;;;;;;0.93;0.57;;;11.80;99.90;;;;;;5056202;28;20480;-61
2023/11/05 04:29:48;;;;;;;2.43;0.67;;;11.80;99.90;;;;;;5055911;28;20943;-62
2023/11/05 04:32:15;;;;;;;2.20;0.60;;;11.80;99.90;;;;;;5056030;28;20519;-62
2023/11/05 04:34:42;;;;;;;1.87;0.80;;;11.80;99.90;;;;;;5055064;28;20940;-61
2023/11/05 04:37:10;;;;;;;1.63;0.63;;;11.80;99.90;;;;;;5056158;28;20434;-62
2023/11/05 04:39:37;;;;;;;3.60;0.80;;;11.80;99.90;;;;;;5055950;28;20484;-62
2023/11/05 04:42:06;;;;;;;3.50;0.90;;;11.80;99.90;;;;;;5055939;28;20470;-61
2023/11/05 04:44:34;;;;;;;0.97;0.50;;;11.80;99.90;;;;;;5055740;28;20485;-61
2023/11/05 04:47:00;;;;;;;0.80;0.77;;;11.70;99.90;;;;;;5055808;28;20439;-61
2023/11/05 04:49:27;;;;;;;3.13;1.07;;;11.70;99.90;;;;;;5055747;28;20437;-61
2023/11/05 04:51:54;;;;;;;1.47;0.90;;;11.80;99.90;;;;;;5055585;28;20494;-61
2023/11/05 04:54:21;;;;;;;4.97;0.93;;;11.80;99.90;;;;;;5055535;28;20446;-61
2023/11/05 04:56:47;;;;;;;1.10;0.50;;;11.70;99.90;;;;;;5055443;28;20484;-61
2023/11/05 04:59:15;;;;;;;1.60;0.80;;;11.70;99.90;;;;;;5055492;28;20449;-61
2023/11/05 05:01:43;;;;;;;1.33;0.87;;;11.60;99.90;;;;;;5055342;28;20441;-60
2023/11/05 05:04:10;;;;;;;1.03;0.60;;;11.60;99.90;;;;;;5055348;28;20445;-59
2023/11/05 05:06:36;;;;;;;1.90;0.70;;;11.60;99.90;;;;;;5055315;28;20452;-59
2023/11/05 05:09:04;;;;;;;1.43;0.60;;;11.70;99.90;;;;;;5055313;28;20452;-60
2023/11/05 05:11:32;;;;;;;1.70;1.00;;;11.60;99.90;;;;;;5054916;28;20521;-60
2023/11/05 05:13:59;;;;;;;1.03;0.50;;;11.70;99.90;;;;;;5055201;28;20448;-60
2023/11/05 05:16:29;;;;;;;1.17;0.50;;;11.70;99.90;;;;;;5054713;28;20940;-61
2023/11/05 05:18:56;;;;;;;0.70;0.70;;;11.60;99.90;;;;;;5055128;28;20446;-61
2023/11/05 05:21:22;;;;;;;2.07;1.00;;;11.50;99.90;;;;;;5055063;28;20448;-61
2023/11/05 05:23:49;;;;;;;0.80;0.70;;;11.40;99.90;;;;;;5054687;28;20469;-61
2023/11/05 05:26:17;;;;;;;3.37;0.80;;;11.40;99.90;;;;;;5054608;28;21034;-61
2023/11/05 05:28:44;;;;;;;1.03;0.70;;;11.50;99.90;;;;;;5054930;28;20445;-60
2023/11/05 05:31:11;;;;;;;1.47;0.57;;;11.50;99.90;;;;;;5054885;28;20445;-60
2023/11/05 05:33:39;;;;;;;0.67;0.50;;;11.60;99.90;;;;;;5054714;28;20462;-60
2023/11/05 05:36:06;;;;;;;0.57;0.37;;;11.60;99.90;;;;;;5054435;28;20928;-60
2023/11/05 05:38:33;;;;;;;3.43;0.87;;;11.70;99.90;;;;;;5054698;28;20447;-59
2023/11/05 05:41:00;;;;;;;1.37;0.40;;;11.70;99.90;;;;;;5054681;28;20445;-60
2023/11/05 05:43:27;;;;;;;2.47;0.60;;;11.70;99.90;;;;;;5054312;28;20987;-60
2023/11/05 05:45:54;;;;;;;0.50;0.50;;;11.70;99.90;;;;;;5053904;28;20481;-60
2023/11/05 05:48:20;;;;;;;1.50;0.50;;;11.80;99.90;;;;;;5054376;28;20445;-60
2023/11/05 05:50:48;;;;;;;0.80;0.80;;;11.80;99.90;;;;;;5054537;28;20446;-60
2023/11/05 05:53:15;;;;;;;1.23;0.77;;;11.80;99.90;;;;;;5054417;28;20840;-60
2023/11/05 05:55:42;;;;;;;1.37;0.87;;;11.90;99.90;;;;;;5054261;28;20802;-60
2023/11/05 05:58:08;;;;;;;1.00;0.90;;;11.90;99.90;;;;;;5054335;28;20445;-60
2023/11/05 06:00:35;;;;;;;1.17;0.70;;;11.90;99.90;;;;;;5054456;28;20441;-61
2023/11/05 06:03:02;;;;;;;0.60;0.57;;;11.90;99.90;;;;;;5054724;28;20469;-61
2023/11/05 06:05:29;;;;;;;1.23;0.50;;;12.00;99.90;;;;;;5054530;28;20531;-61
2023/11/05 06:07:57;;;;;;;0.50;0.30;;;12.00;99.90;;;;;;5054469;28;20477;-60
2023/11/05 06:10:23;;;;;;;0.43;0.43;;;11.90;99.90;;;;;;5054154;28;20855;-60
2023/11/05 06:12:50;;;;;;;0.63;0.40;;;11.90;99.90;;;;;;5054317;28;20458;-60
2023/11/05 06:15:17;;;;;;;0.50;0.40;;;11.80;99.90;;;;;;5054123;28;20471;-60
2023/11/05 06:17:44;;;;;;;0.60;0.50;;;11.90;99.90;;;;;;5054229;28;20561;-60
2023/11/05 06:20:12;;;;;;;1.63;0.63;;;11.90;99.90;;;;;;5053753;28;20931;-60
2023/11/05 06:22:39;;;;;;;0.67;0.50;;;11.90;99.90;;;;;;5053942;28;20493;-60
2023/11/05 06:25:10;;;;;;;0.50;0.30;;;12.00;99.90;;;;;;5053955;28;20473;-60
2023/11/05 06:27:38;;;;;;;0.50;0.30;;;12.00;99.90;;;;;;5053871;28;20461;-60
2023/11/05 06:30:06;;;;;;;2.33;0.37;;;12.00;99.90;;;;;;5053852;28;20484;-60
2023/11/05 06:32:32;;;;;;;0.60;0.40;;;12.10;99.90;;;;;;5053494;28;20465;-60
2023/11/05 06:34:59;;;;;;;1.47;0.40;;;12.10;99.90;;;;;;5053643;28;20438;-60
2023/11/05 06:37:26;;;;;;;1.13;0.40;;;12.10;99.90;;;;;;5053637;28;20827;-60
2023/11/05 06:39:53;;;;;;;2.40;0.40;;;12.10;99.90;;;;;;5053423;28;20446;-60
2023/11/05 06:42:21;;;;;;;0.40;0.30;;;12.10;99.90;;;;;;5053559;28;20474;-60
2023/11/05 06:44:48;;;;;;;1.07;0.40;;;12.20;99.90;;;;;;5053673;28;20477;-61
2023/11/05 06:47:15;;;;;;;1.80;0.40;;;12.10;99.90;;;;;;5053750;28;20446;-60
2023/11/05 06:49:41;;;;;;;2.60;0.73;;;12.20;99.90;;;;;;5053582;28;20469;-61
2023/11/05 06:52:08;;;;;;;2.00;0.70;;;12.20;99.90;;;;;;5053206;28;20508;-59
2023/11/05 06:54:35;;;;;;;2.00;0.50;;;12.20;99.90;;;;;;5053466;28;20437;-59
2023/11/05 06:57:03;;;;;;;1.90;0.40;;;12.20;99.90;;;;;;5053266;28;20442;-59
2023/11/05 06:59:31;;;;;;;0.97;0.40;;;12.20;99.90;;;;;;5053492;28;20522;-59
2023/11/05 07:01:58;;;;;;;0.73;0.40;;;12.10;99.90;;;;;;5053475;28;20464;-59
2023/11/05 07:04:24;;;;;;;0.67;0.33;;;12.10;99.90;;;;;;5053461;28;20472;-60
2023/11/05 07:06:51;;;;;;;1.17;0.30;;;12.10;99.90;;;;;;5053321;28;20490;-60
2023/11/05 07:09:18;;;;;;;0.80;0.40;;;12.10;99.90;;;;;;5053285;28;20445;-60
2023/11/05 07:11:45;;;;;;;0.50;0.30;;;12.10;99.90;;;;;;5052905;28;20484;-60
2023/11/05 07:14:11;;;;;;;0.60;0.40;;;12.10;99.90;;;;;;5053216;28;20839;-60
2023/11/05 07:16:39;;;;;;;1.63;0.83;;;12.10;99.90;;;;;;5053141;28;20452;-60
2023/11/05 07:19:07;;;;;;;1.33;0.37;;;12.10;99.90;;;;;;5053221;28;20444;-60
2023/11/05 07:21:34;;;;;;;0.83;0.50;;;12.10;99.90;;;;;;5053140;28;20484;-60
2023/11/05 07:24:01;;;;;;;0.80;0.63;;;12.10;99.90;;;;;;5053125;28;20445;-59
2023/11/05 07:26:27;;;;;;;1.33;0.50;;;12.10;99.90;;;;;;5052780;28;20470;-59
2023/11/05 07:28:55;;;;;;;0.67;0.60;;;12.10;99.90;;;;;;5053157;28;20468;-59
2023/11/05 07:31:22;;;;;;;1.27;0.53;;;12.10;99.90;;;;;;5053099;28;20519;-58
2023/11/05 07:33:50;;;;;;;1.80;0.40;;;12.10;99.90;;;;;;5053028;28;20531;-57
2023/11/05 07:36:17;;;;;;;0.63;0.50;;;12.00;99.90;;;;;;5052617;28;20441;-59
2023/11/05 07:38:44;;;;;;;1.57;0.50;;;12.10;99.90;;;;;;5052991;28;20449;-60
2023/11/05 07:41:11;;;;;;;1.37;0.30;;;12.10;99.90;;;;;;5053023;28;20478;-59
2023/11/05 07:43:39;;;;;;;1.73;0.50;;;12.10;99.90;;;;;;5052897;28;20471;-58
2023/11/05 07:46:06;;;;;;;2.73;0.50;;;12.10;99.90;;;;;;5053508;28;20504;-58
2023/11/05 07:48:33;;;;;;;1.70;0.40;;;12.20;99.90;;;;;;5052986;28;20474;-58
2023/11/05 07:51:01;;;;;;;1.80;0.60;;;12.20;99.90;;;;;;5052889;28;20507;-58
2023/11/05 07:53:27;;;;;;;1.17;0.47;;;12.30;99.90;;;;;;5052732;28;20458;-58
2023/11/05 07:55:55;;;;;;;0.50;0.30;;;12.30;99.90;;;;;;5052411;28;20495;-58
2023/11/05 07:58:21;;;;;;;0.70;0.50;;;12.40;99.90;;;;;;5052503;28;20932;-58
2023/11/05 08:00:48;;;;;;;1.07;0.60;;;12.40;99.90;;;;;;5052793;28;20456;-58
2023/11/05 08:03:15;;;;;;;4.43;0.30;;;12.50;99.90;;;;;;5052420;28;20979;-59
2023/11/05 08:05:41;;;;;;;0.77;0.30;;;12.50;99.90;;;;;;5052718;28;20478;-58
2023/11/05 08:08:09;;;;;;;1.00;0.40;;;12.60;99.90;;;;;;5052523;28;20452;-58
2023/11/05 08:10:37;;;;;;;1.43;0.60;;;12.60;99.90;;;;;;5055395;28;20532;-58
2023/11/05 08:13:03;;;;;;;0.80;0.47;;;12.60;99.90;;;;;;5056543;28;20507;-58
2023/11/05 08:15:33;;;;;;;1.63;0.60;;;12.70;99.90;;;;;;5056438;28;20448;-58
2023/11/05 08:18:00;;;;;;;1.03;0.50;;;12.70;99.90;;;;;;5056322;28;20438;-58
2023/11/05 08:20:26;;;;;;;1.10;0.60;;;12.70;99.90;;;;;;5056434;28;20445;-59
2023/11/05 08:22:53;;;;;;;0.97;0.67;;;12.70;99.90;;;;;;5055946;28;21006;-59
2023/11/05 08:25:22;;;;;;;1.20;1.10;;;12.60;99.90;;;;;;5056198;28;20442;-59
2023/11/05 08:27:49;;;;;;;2.60;0.87;;;12.70;99.90;;;;;;5056097;28;20449;-59
2023/11/05 08:30:17;;;;;;;1.07;0.87;;;12.70;99.90;;;;;;5055816;28;20932;-59
2023/11/05 08:32:44;;;;;;;1.17;0.60;;;12.70;99.90;;;;;;5055975;28;20472;-59
2023/11/05 08:35:12;;;;;;;1.27;1.00;;;12.70;99.90;;;;;;5055659;28;21001;-59
2023/11/05 08:37:39;;;;;;;1.70;0.80;;;12.80;99.90;;;;;;5055679;28;20437;-59
2023/11/05 08:40:08;;;;;;;1.97;1.87;;;12.90;99.90;;;;;;5055905;28;20473;-59
2023/11/05 08:42:37;;;;;;;2.73;1.17;;;13.00;99.90;;;;;;5056312;28;20478;-59
2023/11/05 08:45:06;;;;;;;4.10;0.80;;;13.10;99.90;;;;;;5055566;28;20445;-59
2023/11/05 08:47:32;;;;;;;2.17;0.80;;;13.20;99.90;;;;;;5055642;28;20561;-59
2023/11/05 08:50:01;;;;;;;1.43;0.70;;;13.30;99.90;;;;;;5056585;28;20794;-59
2023/11/05 08:52:28;;;;;;;2.63;0.87;;;13.50;99.90;;;;;;5055894;28;20472;-59
2023/11/05 08:54:55;;;;;;;3.00;0.57;;;13.60;99.90;;;;;;5055591;28;20447;-59
2023/11/05 08:57:22;;;;;;;2.47;0.50;;;13.60;99.90;;;;;;5055428;28;20476;-59
2023/11/05 08:59:50;;;;;;;2.40;0.80;;;13.60;99.90;;;;;;5055541;28;20528;-59
2023/11/05 09:02:17;;;;;;;3.00;0.70;;;13.60;99.90;;;;;;5055429;28;20469;-59
2023/11/05 09:04:44;;;;;;;1.17;0.80;;;13.50;99.90;;;;;;5055450;28;20457;-59
2023/11/05 09:07:11;;;;;;;3.90;1.00;;;13.50;99.90;;;;;;5055441;28;20484;-59
2023/11/05 09:09:38;;;;;;;1.53;0.60;;;13.40;99.90;;;;;;5055241;28;20500;-59
2023/11/05 09:12:07;;;;;;;1.37;0.90;;;13.50;99.90;;;;;;5054931;28;20473;-59
2023/11/05 09:14:34;;;;;;;3.77;0.90;;;13.50;99.90;;;;;;5055187;28;20477;-59
2023/11/05 09:17:03;;;;;;;5.30;0.93;;;13.60;99.90;;;;;;5055090;28;20536;-59
2023/11/05 09:19:29;;;;;;;3.00;0.63;;;13.60;99.90;;;;;;5054948;28;20449;-60
2023/11/05 09:21:56;;;;;;;2.73;0.63;;;13.70;99.90;;;;;;5055133;28;20466;-60
2023/11/05 09:24:23;;;;;;;2.73;0.57;;;13.70;99.90;;;;;;5055663;28;20788;-60
2023/11/05 09:26:50;;;;;;;2.20;0.80;;;13.60;99.90;;;;;;5054999;28;20886;-59
2023/11/05 09:29:18;;;;;;;1.00;0.50;;;13.60;99.90;;;;;;5055078;28;20453;-60
2023/11/05 09:31:47;;;;;;;0.57;0.40;;;13.70;99.90;;;;;;5055020;28;20452;-60
2023/11/05 09:34:15;;;;;;;0.70;0.60;;;13.60;99.90;;;;;;5055609;28;20446;-60
2023/11/05 09:36:44;;;;;;;1.00;0.57;;;13.60;99.90;;;;;;5054712;28;20442;-60
2023/11/05 09:39:12;;;;;;;1.63;0.70;;;13.60;99.90;;;;;;5054784;28;20814;-60
2023/11/05 09:41:39;;;;;;;2.93;0.93;;;13.60;99.90;;;;;;5054643;28;20827;-60
2023/11/05 09:44:06;;;;;;;0.60;0.50;;;13.60;99.90;;;;;;5054794;28;20850;-60
2023/11/05 09:46:34;;;;;;;0.83;0.50;;;13.60;99.90;;;;;;5054514;28;20555;-60
2023/11/05 09:49:01;;;;;;;3.27;0.57;;;13.50;99.90;;;;;;5054592;28;20460;-60
2023/11/05 09:51:29;;;;;;;1.37;0.80;;;13.40;99.90;;;;;;5054559;28;20454;-59
2023/11/05 09:53:56;;;;;;;1.13;0.50;;;13.40;99.90;;;;;;5054163;28;20837;-57
2023/11/05 09:56:24;;;;;;;1.60;0.70;;;13.30;99.90;;;;;;5054413;28;20872;-58
2023/11/05 09:58:50;;;;;;;1.90;0.73;;;13.20;99.90;;;;;;5054323;28;20442;-58
2023/11/05 10:01:17;;;;;;;1.00;0.60;;;13.00;99.90;;;;;;5054458;28;20448;-58
2023/11/05 10:03:44;;;;;;;1.03;0.70;;;12.90;99.90;;;;;;5054302;28;20462;-58
2023/11/05 10:06:16;;;;;;;1.10;0.70;;;12.70;99.90;;;;;;5054105;28;20484;-58
2023/11/05 10:08:44;;;;;;;1.13;0.70;;;12.60;99.90;;;;;;5054215;28;20522;-58
2023/11/05 10:11:11;;;;;;;1.40;0.80;;;12.50;99.90;;;;;;5053840;28;20849;-58
2023/11/05 10:13:38;;;;;;;1.20;0.60;;;12.70;99.90;;;;;;5054105;28;20505;-59
2023/11/05 10:16:07;;;;;;;4.60;1.00;;;12.70;99.90;;;;;;5054103;28;20477;-59
2023/11/05 10:18:36;;;;;;;2.03;0.80;;;12.80;99.90;;;;;;5053952;28;20850;-59
2023/11/05 10:21:05;;;;;;;1.50;0.70;;;12.80;99.90;;;;;;5053955;28;20438;-59
2023/11/05 10:23:48;;;;;;;3.20;1.10;;;12.90;99.90;;;;;;5053924;28;20465;-59
2023/11/05 10:26:26;;;;;;;4.63;1.17;;;12.90;99.90;;;;;;5054673;28;20500;-60
2023/11/05 10:28:54;;;;;;;4.67;1.07;;;13.00;99.90;;;;;;5053902;28;20466;-60
2023/11/05 10:31:22;;;;;;;2.30;1.17;;;13.00;99.90;;;;;;5053860;28;20449;-59
2023/11/05 10:33:50;;;;;;;2.53;1.30;;;13.00;99.90;;;;;;5053239;28;20469;-60
2023/11/05 10:36:17;;;;;;;2.50;1.40;;;13.00;99.90;;;;;;5053677;28;20446;-59
2023/11/05 10:38:44;;;;;;;2.20;0.93;;;12.90;99.90;;;;;;5053533;28;20438;-59
2023/11/05 10:41:13;;;;;;;1.90;1.10;;;12.90;99.90;;;;;;5053632;28;20445;-59
2023/11/05 10:43:41;;;;;;;1.97;1.03;;;13.00;99.90;;;;;;5053562;28;20466;-59
2023/11/05 10:46:08;;;;;;;2.10;0.90;;;13.00;99.90;;;;;;5053567;28;20508;-60
2023/11/05 10:48:36;;;;;;;4.00;1.20;;;13.00;99.90;;;;;;5053541;28;20859;-60
2023/11/05 10:51:04;;;;;;;1.27;0.90;;;13.00;99.90;;;;;;5053546;28;20865;-59
2023/11/05 10:53:31;;;;;;;2.47;1.17;;;13.00;99.90;;;;;;5053379;28;20469;-59
2023/11/05 10:55:58;;;;;;;2.40;1.10;;;13.00;99.90;;;;;;5053506;28;20623;-60
2023/11/05 10:58:41;;;;;;;3.60;1.10;;;13.00;99.90;;;;;;5053179;28;20448;-58
2023/11/05 11:01:15;;;;;;;2.63;1.30;;;12.80;99.90;;;;;;5053414;28;20434;-58
2023/11/05 11:03:41;;;;;;;1.97;1.07;;;12.60;99.90;;;;;;5053262;28;20472;-58
2023/11/05 11:06:08;;;;;;;1.53;1.20;;;12.60;99.90;;;;;;5053373;28;20456;-58
2023/11/05 11:08:36;;;;;;;2.87;1.30;;;12.50;99.90;;;;;;5052951;28;20962;-58
2023/11/05 11:11:13;;;;;;;3.10;1.17;;;12.40;99.90;;;;;;5052818;28;20457;-57
2023/11/05 11:13:52;;;;;;;2.30;1.30;;;12.50;99.90;;;;;;5053261;28;20462;-57
2023/11/05 11:16:23;;;;;;;2.33;1.60;;;12.60;99.90;;;;;;5053257;28;20426;-58
2023/11/05 11:18:52;;;;;;;3.23;1.40;;;12.50;99.90;;;;;;5053012;28;20448;-57
2023/11/05 11:21:20;;;;;;;2.83;1.50;;;12.50;99.90;;;;;;5053247;28;20468;-57
2023/11/05 11:23:49;;;;;;;5.13;1.20;;;12.40;99.90;;;;;;5053131;28;20494;-57
2023/11/05 11:26:20;;;;;;;3.40;1.30;;;12.40;99.90;;;;;;5053102;28;20850;-57
2023/11/05 11:28:57;;;;;;;2.27;1.23;;;12.40;99.90;;;;;;5052877;28;20963;-58
2023/11/05 11:31:25;;;;;;;3.23;1.40;;;12.40;99.90;;;;;;5053147;28;20491;-58
2023/11/05 11:33:53;;;;;;;1.90;1.60;;;12.40;99.90;;;;;;5052723;28;20971;-58
2023/11/05 11:36:20;;;;;;;1.40;1.30;;;12.40;99.90;;;;;;5053041;28;20473;-58
2023/11/05 11:38:47;;;;;;;3.50;2.17;;;12.50;99.90;;;;;;5052841;28;20449;-58
2023/11/05 11:41:14;;;;;;;2.40;1.70;;;12.50;99.90;;;;;;5052762;28;20442;-58
2023/11/05 11:43:41;;;;;;;2.37;1.60;;;12.40;99.90;;;;;;5052909;28;20462;-58
2023/11/05 11:46:09;;;;;;;3.30;1.83;;;12.30;99.90;;;;;;5056237;28;20491;-58
2023/11/05 11:48:36;;;;;;;2.33;2.13;;;12.30;99.90;;;;;;5056848;28;20575;-58
2023/11/05 11:51:06;;;;;;;5.93;2.33;;;12.30;99.90;;;;;;5056897;28;20452;-59
2023/11/05 11:53:35;;;;;;;2.90;2.30;;;12.40;99.90;;;;;;5056794;28;20516;-59
2023/11/05 11:56:02;;;;;;;7.63;2.73;;;12.40;99.90;;;;;;5056550;28;20521;-59
2023/11/05 11:58:29;;;;;;;6.03;2.73;;;12.50;99.90;;;;;;5056319;28;20939;-59
2023/11/05 12:00:57;;;;;;;6.83;2.90;;;12.60;99.90;;;;;;5056798;28;20442;-59
2023/11/05 12:03:27;;;;;;;2.97;2.60;;;12.70;99.90;;;;;;5056445;28;20500;-59
2023/11/05 12:05:54;;;;;;;3.93;2.73;;;12.60;99.90;;;;;;5056675;28;20456;-58
2023/11/05 12:08:38;;;;;;;5.40;2.20;;;12.50;99.90;;;;;;5057109;28;20819;-58
2023/11/05 12:11:07;;;;;;;3.60;2.17;;;12.40;99.90;;;;;;5056373;28;20457;-58
2023/11/05 12:13:34;;;;;;;4.70;2.47;;;12.40;99.90;;;;;;5056214;28;20500;-58
2023/11/05 12:16:03;;;;;;;4.20;1.90;;;12.30;99.90;;;;;;5056466;28;20484;-58
2023/11/05 12:18:32;;;;;;;4.50;2.53;;;12.30;99.90;;;;;;5056153;28;20464;-58
2023/11/05 12:21:00;;;;;;;3.23;2.23;;;12.30;99.90;;;;;;5056550;28;20503;-58
2023/11/05 12:23:27;;;;;;;5.87;3.60;;;12.40;99.90;;;;;;5056724;28;20573;-58
2023/11/05 12:25:57;;;;;;;7.20;3.20;;;12.40;99.90;;;;;;5056787;28;20457;-59
2023/11/05 12:28:23;;;;;;;6.50;3.60;;;12.40;99.90;;;;;;5056364;28;20492;-59
2023/11/05 12:30:50;;;;;;;5.80;3.70;;;12.50;99.90;;;;;;5056233;28;20473;-59
2023/11/05 12:33:17;;;;;;;6.10;3.03;;;12.60;99.90;;;;;;5056124;28;20461;-59
2023/11/05 12:35:45;;;;;;;6.47;3.43;;;12.70;99.90;;;;;;5056145;28;20444;-59
2023/11/05 12:38:12;;;;;;;6.37;3.90;;;12.90;99.90;;;;;;5055461;28;20845;-60
2023/11/05 12:40:39;;;;;;;5.67;3.53;;;13.20;99.90;;;;;;5055956;28;20441;-59
2023/11/05 12:43:05;;;;;;;5.50;3.57;;;13.40;99.90;;;;;;5055599;28;21014;-60
2023/11/05 12:45:32;;;;;;;7.40;4.57;;;13.50;99.90;;;;;;5055891;28;20442;-60
2023/11/05 12:47:59;;;;;;;7.73;4.00;;;13.60;99.90;;;;;;5055798;28;20488;-60
2023/11/05 12:50:26;;;;;;;9.00;3.83;;;13.60;99.90;;;;;;5055817;28;20544;-60